sensor_id;sensor_type;location;lat;lon;timestamp;pressure;altitude;pressure_sealevel;temperature;humidity
54512;BME280;40419;47.438;19.026;2023-06-22T00:00:17;100048.69;;;22.10;100.00
54512;BME280;40419;47.438;19.026;2023-06-22T00:02:47;100065.00;;;22.32;100.00
54512;BME280;40419;47.438;19.026;2023-06-22T00:05:15;100052.00;;;22.17;100.00
54512;BME280;40419;47.438;19.026;2023-06-22T00:07:40;100047.59;;;22.26;100.00
54512;BME280;40419;47.438;19.026;2023-06-22T00:10:06;100046.50;;;22.17;100.00
54512;BME280;40419;47.438;19.026;2023-06-22T00:12:34;100056.97;;;22.05;100.00
54512;BME280;40419;47.438;19.026;2023-06-22T00:15:02;100064.69;;;22.08;100.00
54512;BME280;40419;47.438;19.026;2023-06-22T00:17:30;100053.38;;;21.99;100.00
54512;BME280;40419;47.438;19.026;2023-06-22T00:19:58;100060.81;;;22.04;100.00
54512;BME280;40419;47.438;19.026;2023-06-22T00:22:25;100056.13;;;21.99;100.00
54512;BME280;40419;47.438;19.026;2023-06-22T00:24:56;100051.97;;;21.97;100.00
54512;BME280;40419;47.438;19.026;2023-06-22T00:27:22;100046.19;;;21.98;100.00
54512;BME280;40419;47.438;19.026;2023-06-22T00:29:53;100035.44;;;21.91;100.00
54512;BME280;40419;47.438;19.026;2023-06-22T00:32:22;100044.53;;;22.02;100.00
54512;BME280;40419;47.438;19.026;2023-06-22T00:34:47;100055.56;;;22.02;100.00
54512;BME280;40419;47.438;19.026;2023-06-22T00:37:15;100066.03;;;21.90;100.00
54512;BME280;40419;47.438;19.026;2023-06-22T00:39:42;100064.38;;;21.89;100.00
54512;BME280;40419;47.438;19.026;2023-06-22T00:42:08;100069.03;;;21.73;100.00
54512;BME280;40419;47.438;19.026;2023-06-22T00:44:35;100070.09;;;21.62;100.00
54512;BME280;40419;47.438;19.026;2023-06-22T00:47:04;100081.72;;;21.69;100.00
54512;BME280;40419;47.438;19.026;2023-06-22T00:49:32;100072.88;;;21.62;100.00
54512;BME280;40419;47.438;19.026;2023-06-22T00:51:58;100066.00;;;21.64;100.00
54512;BME280;40419;47.438;19.026;2023-06-22T00:54:28;100067.66;;;21.70;100.00
54512;BME280;40419;47.438;19.026;2023-06-22T00:56:54;100060.47;;;21.69;100.00
54512;BME280;40419;47.438;19.026;2023-06-22T00:59:24;100058.84;;;21.68;100.00
54512;BME280;40419;47.438;19.026;2023-06-22T01:01:56;100059.38;;;21.75;100.00
54512;BME280;40419;47.438;19.026;2023-06-22T01:04:24;100057.47;;;21.76;100.00
54512;BME280;40419;47.438;19.026;2023-06-22T01:12:41;100049.22;;;21.76;100.00
54512;BME280;40419;47.438;19.026;2023-06-22T01:17:44;100057.19;;;21.62;100.00
54512;BME280;40419;47.438;19.026;2023-06-22T01:20:15;100046.16;;;21.72;100.00
54512;BME280;40419;47.438;19.026;2023-06-22T01:23:05;100046.44;;;21.61;100.00
54512;BME280;40419;47.438;19.026;2023-06-22T01:25:48;100036.50;;;21.65;100.00
54512;BME280;40419;47.438;19.026;2023-06-22T01:31:18;100044.22;;;21.63;100.00
54512;BME280;40419;47.438;19.026;2023-06-22T01:33:47;100033.47;;;21.56;100.00
54512;BME280;40419;47.438;19.026;2023-06-22T01:36:21;100033.47;;;21.61;100.00
54512;BME280;40419;47.438;19.026;2023-06-22T01:38:48;100037.59;;;21.58;100.00
54512;BME280;40419;47.438;19.026;2023-06-22T01:41:21;100033.75;;;21.65;100.00
54512;BME280;40419;47.438;19.026;2023-06-22T01:43:51;100029.06;;;21.60;100.00
54512;BME280;40419;47.438;19.026;2023-06-22T01:46:24;100026.84;;;21.52;100.00
54512;BME280;40419;47.438;19.026;2023-06-22T01:48:51;100024.94;;;21.57;100.00
54512;BME280;40419;47.438;19.026;2023-06-22T01:51:19;100024.09;;;21.52;100.00
54512;BME280;40419;47.438;19.026;2023-06-22T01:53:47;100026.56;;;21.53;100.00
54512;BME280;40419;47.438;19.026;2023-06-22T01:56:18;100025.47;;;21.59;100.00
54512;BME280;40419;47.438;19.026;2023-06-22T01:59:23;100031.50;;;21.51;100.00
54512;BME280;40419;47.438;19.026;2023-06-22T02:01:59;100039.50;;;21.53;100.00
54512;BME280;40419;47.438;19.026;2023-06-22T02:04:28;100034.19;;;21.36;100.00
54512;BME280;40419;47.438;19.026;2023-06-22T02:07:05;100051.78;;;21.24;100.00
54512;BME280;40419;47.438;19.026;2023-06-22T02:09:33;100044.94;;;21.32;100.00
54512;BME280;40419;47.438;19.026;2023-06-22T02:12:07;100051.19;;;21.12;100.00
54512;BME280;40419;47.438;19.026;2023-06-22T02:14:36;100051.47;;;21.11;100.00
54512;BME280;40419;47.438;19.026;2023-06-22T02:17:04;100039.34;;;21.12;100.00
54512;BME280;40419;47.438;19.026;2023-06-22T02:19:38;100048.44;;;21.12;100.00
54512;BME280;40419;47.438;19.026;2023-06-22T02:22:08;100051.16;;;21.07;100.00
54512;BME280;40419;47.438;19.026;2023-06-22T02:24:36;100053.38;;;21.10;100.00
54512;BME280;40419;47.438;19.026;2023-06-22T02:27:02;100048.66;;;21.05;100.00
54512;BME280;40419;47.438;19.026;2023-06-22T02:29:31;100059.72;;;21.11;100.00
54512;BME280;40419;47.438;19.026;2023-06-22T02:32:01;100058.53;;;21.01;100.00
54512;BME280;40419;47.438;19.026;2023-06-22T02:34:29;100066.00;;;21.01;100.00
54512;BME280;40419;47.438;19.026;2023-06-22T02:36:55;100069.81;;;20.95;100.00
54512;BME280;40419;47.438;19.026;2023-06-22T02:39:22;100066.78;;;20.96;100.00
54512;BME280;40419;47.438;19.026;2023-06-22T02:41:49;100078.34;;;20.98;100.00
54512;BME280;40419;47.438;19.026;2023-06-22T02:44:18;100077.53;;;21.03;100.00
54512;BME280;40419;47.438;19.026;2023-06-22T02:46:50;100075.09;;;21.06;100.00
54512;BME280;40419;47.438;19.026;2023-06-22T02:49:16;100072.03;;;21.03;100.00
54512;BME280;40419;47.438;19.026;2023-06-22T02:51:47;100067.88;;;20.95;100.00
54512;BME280;40419;47.438;19.026;2023-06-22T02:54:18;100065.03;;;20.75;100.00
54512;BME280;40419;47.438;19.026;2023-06-22T02:56:48;100067.00;;;20.84;100.00
54512;BME280;40419;47.438;19.026;2023-06-22T02:59:15;100065.38;;;20.88;100.00
54512;BME280;40419;47.438;19.026;2023-06-22T03:01:42;100065.13;;;20.95;100.00
54512;BME280;40419;47.438;19.026;2023-06-22T03:04:21;100065.44;;;20.99;100.00
54512;BME280;40419;47.438;19.026;2023-06-22T03:06:46;100061.00;;;20.98;100.00
54512;BME280;40419;47.438;19.026;2023-06-22T03:09:19;100063.38;;;20.79;100.00
54512;BME280;40419;47.438;19.026;2023-06-22T03:11:48;100067.56;;;20.86;100.00
54512;BME280;40419;47.438;19.026;2023-06-22T03:14:14;100071.44;;;20.91;100.00
54512;BME280;40419;47.438;19.026;2023-06-22T03:16:42;100074.22;;;20.96;100.00
54512;BME280;40419;47.438;19.026;2023-06-22T03:19:10;100073.59;;;20.83;100.00
54512;BME280;40419;47.438;19.026;2023-06-22T03:21:37;100065.84;;;20.80;100.00
54512;BME280;40419;47.438;19.026;2023-06-22T03:24:06;100070.91;;;20.94;100.00
54512;BME280;40419;47.438;19.026;2023-06-22T03:26:34;100071.34;;;20.75;100.00
54512;BME280;40419;47.438;19.026;2023-06-22T03:29:04;100067.56;;;20.86;100.00
54512;BME280;40419;47.438;19.026;2023-06-22T03:31:33;100071.22;;;20.97;100.00
54512;BME280;40419;47.438;19.026;2023-06-22T03:33:59;100070.66;;;21.00;100.00
54512;BME280;40419;47.438;19.026;2023-06-22T03:36:27;100071.00;;;21.09;100.00
54512;BME280;40419;47.438;19.026;2023-06-22T03:38:59;100076.19;;;21.00;100.00
54512;BME280;40419;47.438;19.026;2023-06-22T03:41:28;100056.66;;;21.02;100.00
54512;BME280;40419;47.438;19.026;2023-06-22T03:43:54;100051.69;;;20.99;100.00
54512;BME280;40419;47.438;19.026;2023-06-22T03:46:19;100062.63;;;20.94;100.00
54512;BME280;40419;47.438;19.026;2023-06-22T03:48:47;100059.47;;;21.17;100.00
54512;BME280;40419;47.438;19.026;2023-06-22T03:51:13;100049.25;;;21.18;100.00
54512;BME280;40419;47.438;19.026;2023-06-22T03:53:41;100057.78;;;21.16;100.00
54512;BME280;40419;47.438;19.026;2023-06-22T03:56:09;100064.16;;;21.27;100.00
54512;BME280;40419;47.438;19.026;2023-06-22T03:58:34;100066.38;;;21.20;100.00
54512;BME280;40419;47.438;19.026;2023-06-22T04:01:02;100074.38;;;21.27;100.00
54512;BME280;40419;47.438;19.026;2023-06-22T04:03:28;100070.41;;;21.07;100.00
54512;BME280;40419;47.438;19.026;2023-06-22T04:05:54;100074.31;;;21.11;100.00
54512;BME280;40419;47.438;19.026;2023-06-22T04:08:21;100085.25;;;21.06;100.00
54512;BME280;40419;47.438;19.026;2023-06-22T04:10:52;100080.16;;;21.30;100.00
54512;BME280;40419;47.438;19.026;2023-06-22T04:13:18;100076.34;;;21.41;100.00
54512;BME280;40419;47.438;19.026;2023-06-22T04:15:43;100065.69;;;21.50;100.00
54512;BME280;40419;47.438;19.026;2023-06-22T04:18:12;100061.84;;;21.62;100.00
54512;BME280;40419;47.438;19.026;2023-06-22T04:20:42;100074.25;;;21.59;100.00
54512;BME280;40419;47.438;19.026;2023-06-22T04:23:12;100069.28;;;21.66;100.00
54512;BME280;40419;47.438;19.026;2023-06-22T04:25:41;100077.88;;;21.80;100.00
54512;BME280;40419;47.438;19.026;2023-06-22T04:28:06;100079.28;;;21.88;100.00
54512;BME280;40419;47.438;19.026;2023-06-22T04:30:38;100076.25;;;21.89;100.00
54512;BME280;40419;47.438;19.026;2023-06-22T04:33:16;100074.00;;;21.76;100.00
54512;BME280;40419;47.438;19.026;2023-06-22T04:35:44;100088.91;;;21.85;100.00
54512;BME280;40419;47.438;19.026;2023-06-22T04:38:12;100075.41;;;21.89;100.00
54512;BME280;40419;47.438;19.026;2023-06-22T04:40:39;100075.97;;;21.96;100.00
54512;BME280;40419;47.438;19.026;2023-06-22T04:43:07;100081.22;;;22.08;100.00
54512;BME280;40419;47.438;19.026;2023-06-22T04:45:35;100091.44;;;22.23;100.00
54512;BME280;40419;47.438;19.026;2023-06-22T04:48:04;100090.59;;;22.02;100.00
54512;BME280;40419;47.438;19.026;2023-06-22T04:50:32;100093.69;;;22.36;100.00
54512;BME280;40419;47.438;19.026;2023-06-22T04:52:57;100092.28;;;22.59;100.00
54512;BME280;40419;47.438;19.026;2023-06-22T04:55:25;100095.88;;;22.65;100.00
54512;BME280;40419;47.438;19.026;2023-06-22T04:57:53;100102.78;;;22.73;100.00
54512;BME280;40419;47.438;19.026;2023-06-22T05:00:26;100100.25;;;22.76;100.00
54512;BME280;40419;47.438;19.026;2023-06-22T05:02:51;100100.50;;;22.90;100.00
54512;BME280;40419;47.438;19.026;2023-06-22T05:05:19;100104.66;;;22.93;100.00
54512;BME280;40419;47.438;19.026;2023-06-22T05:07:47;100106.31;;;22.89;100.00
54512;BME280;40419;47.438;19.026;2023-06-22T05:10:18;100107.97;;;22.95;100.00
54512;BME280;40419;47.438;19.026;2023-06-22T05:12:46;100119.84;;;23.11;100.00
54512;BME280;40419;47.438;19.026;2023-06-22T05:15:16;100125.34;;;23.00;100.00
54512;BME280;40419;47.438;19.026;2023-06-22T05:17:46;100122.59;;;23.00;100.00
54512;BME280;40419;47.438;19.026;2023-06-22T05:20:12;100119.00;;;23.21;100.00
54512;BME280;40419;47.438;19.026;2023-06-22T05:22:43;100128.34;;;23.25;100.00
54512;BME280;40419;47.438;19.026;2023-06-22T05:25:11;100136.00;;;23.48;100.00
54512;BME280;40419;47.438;19.026;2023-06-22T05:27:37;100133.47;;;23.62;100.00
54512;BME280;40419;47.438;19.026;2023-06-22T05:30:11;100141.19;;;23.70;100.00
54512;BME280;40419;47.438;19.026;2023-06-22T05:32:39;100127.00;;;23.82;100.00
54512;BME280;40419;47.438;19.026;2023-06-22T05:35:07;100125.06;;;23.88;100.00
54512;BME280;40419;47.438;19.026;2023-06-22T05:37:32;100125.91;;;23.88;100.00
54512;BME280;40419;47.438;19.026;2023-06-22T05:40:01;100132.50;;;23.93;100.00
54512;BME280;40419;47.438;19.026;2023-06-22T05:42:29;100137.38;;;24.11;100.00
54512;BME280;40419;47.438;19.026;2023-06-22T05:45:00;100140.63;;;24.18;100.00
54512;BME280;40419;47.438;19.026;2023-06-22T05:47:26;100141.78;;;24.12;100.00
54512;BME280;40419;47.438;19.026;2023-06-22T05:49:51;100137.91;;;24.13;100.00
54512;BME280;40419;47.438;19.026;2023-06-22T05:52:17;100140.91;;;24.22;100.00
54512;BME280;40419;47.438;19.026;2023-06-22T05:54:49;100140.78;;;24.37;94.78
54512;BME280;40419;47.438;19.026;2023-06-22T05:57:17;100139.63;;;24.44;97.50
54512;BME280;40419;47.438;19.026;2023-06-22T05:59:47;100144.81;;;24.55;98.69
54512;BME280;40419;47.438;19.026;2023-06-22T06:02:12;100148.91;;;24.63;100.00
54512;BME280;40419;47.438;19.026;2023-06-22T06:04:40;100148.66;;;24.54;96.20
54512;BME280;40419;47.438;19.026;2023-06-22T06:07:08;100146.75;;;24.15;97.00
54512;BME280;40419;47.438;19.026;2023-06-22T06:09:33;100141.75;;;24.57;99.91
54512;BME280;40419;47.438;19.026;2023-06-22T06:12:02;100153.59;;;24.97;98.30
54512;BME280;40419;47.438;19.026;2023-06-22T06:14:30;100155.56;;;25.21;95.28
54512;BME280;40419;47.438;19.026;2023-06-22T06:16:56;100159.53;;;25.39;96.02
54512;BME280;40419;47.438;19.026;2023-06-22T06:19:24;100153.38;;;25.47;92.68
54512;BME280;40419;47.438;19.026;2023-06-22T06:21:51;100156.84;;;25.04;95.42
54512;BME280;40419;47.438;19.026;2023-06-22T06:24:17;100156.59;;;25.30;95.42
54512;BME280;40419;47.438;19.026;2023-06-22T06:26:45;100138.47;;;25.38;93.62
54512;BME280;40419;47.438;19.026;2023-06-22T06:29:10;100141.50;;;25.12;93.59
54512;BME280;40419;47.438;19.026;2023-06-22T06:31:40;100141.66;;;25.26;98.02
54512;BME280;40419;47.438;19.026;2023-06-22T06:34:05;100151.53;;;25.37;92.08
54512;BME280;40419;47.438;19.026;2023-06-22T06:36:31;100143.44;;;25.41;94.08
54512;BME280;40419;47.438;19.026;2023-06-22T06:38:59;100142.38;;;25.61;94.25
54512;BME280;40419;47.438;19.026;2023-06-22T06:41:27;100138.47;;;25.62;92.20
54512;BME280;40419;47.438;19.026;2023-06-22T06:43:55;100136.41;;;25.92;90.27
54512;BME280;40419;47.438;19.026;2023-06-22T06:46:23;100140.66;;;26.08;87.63
54512;BME280;40419;47.438;19.026;2023-06-22T06:48:53;100133.00;;;26.19;80.22
54512;BME280;40419;47.438;19.026;2023-06-22T06:51:18;100134.03;;;26.23;80.57
54512;BME280;40419;47.438;19.026;2023-06-22T06:53:49;100136.56;;;26.39;76.88
54512;BME280;40419;47.438;19.026;2023-06-22T06:56:14;100132.31;;;26.27;78.63
54512;BME280;40419;47.438;19.026;2023-06-22T06:58:42;100128.34;;;26.14;82.13
54512;BME280;40419;47.438;19.026;2023-06-22T07:01:15;100131.72;;;26.11;80.25
54512;BME280;40419;47.438;19.026;2023-06-22T07:03:40;100137.00;;;26.46;75.55
54512;BME280;40419;47.438;19.026;2023-06-22T07:06:08;100127.22;;;26.67;73.26
54512;BME280;40419;47.438;19.026;2023-06-22T07:08:34;100131.00;;;26.91;71.47
54512;BME280;40419;47.438;19.026;2023-06-22T07:11:04;100133.06;;;27.13;67.14
54512;BME280;40419;47.438;19.026;2023-06-22T07:13:32;100131.41;;;26.98;70.03
54512;BME280;40419;47.438;19.026;2023-06-22T07:16:01;100126.84;;;26.74;67.93
54512;BME280;40419;47.438;19.026;2023-06-22T07:18:34;100126.41;;;27.00;64.33
54512;BME280;40419;47.438;19.026;2023-06-22T07:21:04;100128.63;;;26.98;67.86
54512;BME280;40419;47.438;19.026;2023-06-22T07:23:34;100123.97;;;26.79;68.30
54512;BME280;40419;47.438;19.026;2023-06-22T07:25:59;100129.78;;;26.97;68.12
54512;BME280;40419;47.438;19.026;2023-06-22T07:28:31;100125.25;;;27.01;69.48
54512;BME280;40419;47.438;19.026;2023-06-22T07:31:02;100137.97;;;27.35;67.71
54512;BME280;40419;47.438;19.026;2023-06-22T07:33:31;100131.22;;;26.94;64.38
54512;BME280;40419;47.438;19.026;2023-06-22T07:35:59;100141.06;;;27.47;63.30
54512;BME280;40419;47.438;19.026;2023-06-22T07:38:24;100132.78;;;27.70;65.62
54512;BME280;40419;47.438;19.026;2023-06-22T07:40:56;100144.53;;;27.67;65.06
54512;BME280;40419;47.438;19.026;2023-06-22T07:43:24;100133.91;;;27.69;63.36
54512;BME280;40419;47.438;19.026;2023-06-22T07:45:52;100126.25;;;27.88;62.60
54512;BME280;40419;47.438;19.026;2023-06-22T07:48:20;100133.72;;;28.16;59.37
54512;BME280;40419;47.438;19.026;2023-06-22T07:50:49;100125.91;;;28.18;60.44
54512;BME280;40419;47.438;19.026;2023-06-22T07:53:17;100129.09;;;27.61;66.73
54512;BME280;40419;47.438;19.026;2023-06-22T07:55:45;100121.72;;;27.92;64.78
54512;BME280;40419;47.438;19.026;2023-06-22T07:58:10;100116.97;;;28.07;67.04
54512;BME280;40419;47.438;19.026;2023-06-22T08:00:36;100119.00;;;28.15;63.85
54512;BME280;40419;47.438;19.026;2023-06-22T08:03:04;100122.84;;;28.05;62.59
54512;BME280;40419;47.438;19.026;2023-06-22T08:05:31;100120.06;;;27.91;68.48
54512;BME280;40419;47.438;19.026;2023-06-22T08:07:57;100110.16;;;28.13;65.05
54512;BME280;40419;47.438;19.026;2023-06-22T08:10:25;100115.81;;;28.08;65.09
54512;BME280;40419;47.438;19.026;2023-06-22T08:12:51;100115.97;;;28.25;64.15
54512;BME280;40419;47.438;19.026;2023-06-22T08:15:19;100123.31;;;28.21;65.45
54512;BME280;40419;47.438;19.026;2023-06-22T08:17:45;100115.84;;;28.31;62.55
54512;BME280;40419;47.438;19.026;2023-06-22T08:20:20;100113.94;;;28.40;64.36
54512;BME280;40419;47.438;19.026;2023-06-22T08:22:45;100114.66;;;28.68;63.52
54512;BME280;40419;47.438;19.026;2023-06-22T08:25:14;100119.84;;;28.61;63.63
54512;BME280;40419;47.438;19.026;2023-06-22T08:27:39;100115.34;;;28.51;64.07
54512;BME280;40419;47.438;19.026;2023-06-22T08:30:06;100111.38;;;28.43;65.81
54512;BME280;40419;47.438;19.026;2023-06-22T08:32:32;100122.84;;;28.64;61.25
54512;BME280;40419;47.438;19.026;2023-06-22T08:34:58;100116.47;;;28.50;63.29
54512;BME280;40419;47.438;19.026;2023-06-22T08:37:24;100109.13;;;28.77;62.92
54512;BME280;40419;47.438;19.026;2023-06-22T08:40:02;100107.44;;;28.44;65.25
54512;BME280;40419;47.438;19.026;2023-06-22T08:42:32;100118.91;;;28.66;66.60
54512;BME280;40419;47.438;19.026;2023-06-22T08:45:00;100112.41;;;28.79;67.33
54512;BME280;40419;47.438;19.026;2023-06-22T08:47:29;100107.03;;;28.83;66.03
54512;BME280;40419;47.438;19.026;2023-06-22T08:49:57;100107.81;;;29.06;65.33
54512;BME280;40419;47.438;19.026;2023-06-22T08:52:27;100108.34;;;29.16;63.30
54512;BME280;40419;47.438;19.026;2023-06-22T08:54:52;100103.47;;;29.22;65.00
54512;BME280;40419;47.438;19.026;2023-06-22T08:57:23;100102.75;;;29.16;66.20
54512;BME280;40419;47.438;19.026;2023-06-22T08:59:48;100093.69;;;29.33;63.67
54512;BME280;40419;47.438;19.026;2023-06-22T09:02:17;100100.63;;;29.13;62.41
54512;BME280;40419;47.438;19.026;2023-06-22T09:04:43;100095.81;;;29.37;65.13
54512;BME280;40419;47.438;19.026;2023-06-22T09:07:08;100095.16;;;29.31;63.99
54512;BME280;40419;47.438;19.026;2023-06-22T09:09:36;100093.44;;;29.21;62.91
54512;BME280;40419;47.438;19.026;2023-06-22T09:12:02;100084.66;;;29.45;64.58
54512;BME280;40419;47.438;19.026;2023-06-22T09:14:28;100089.75;;;29.43;63.20
54512;BME280;40419;47.438;19.026;2023-06-22T09:16:56;100083.41;;;29.69;58.42
54512;BME280;40419;47.438;19.026;2023-06-22T09:19:21;100076.22;;;29.85;58.89
54512;BME280;40419;47.438;19.026;2023-06-22T09:21:51;100081.31;;;29.83;56.98
54512;BME280;40419;47.438;19.026;2023-06-22T09:24:22;100074.38;;;29.72;58.74
54512;BME280;40419;47.438;19.026;2023-06-22T09:26:47;100078.69;;;29.87;59.79
54512;BME280;40419;47.438;19.026;2023-06-22T09:29:13;100080.28;;;29.70;60.35
54512;BME280;40419;47.438;19.026;2023-06-22T09:31:38;100073.03;;;29.52;60.89
54512;BME280;40419;47.438;19.026;2023-06-22T09:34:04;100077.44;;;29.36;60.52
54512;BME280;40419;47.438;19.026;2023-06-22T09:36:30;100071.25;;;29.56;59.87
54512;BME280;40419;47.438;19.026;2023-06-22T09:38:57;100073.94;;;29.96;58.18
54512;BME280;40419;47.438;19.026;2023-06-22T09:41:24;100076.72;;;29.87;57.43
54512;BME280;40419;47.438;19.026;2023-06-22T09:43:50;100070.34;;;30.04;59.62
54512;BME280;40419;47.438;19.026;2023-06-22T09:46:20;100074.94;;;30.09;59.32
54512;BME280;40419;47.438;19.026;2023-06-22T09:48:47;100075.88;;;30.13;55.42
54512;BME280;40419;47.438;19.026;2023-06-22T09:51:13;100075.22;;;29.81;58.31
54512;BME280;40419;47.438;19.026;2023-06-22T09:53:41;100075.91;;;30.04;55.87
54512;BME280;40419;47.438;19.026;2023-06-22T09:56:06;100071.50;;;29.28;58.88
54512;BME280;40419;47.438;19.026;2023-06-22T09:58:34;100078.56;;;29.34;59.34
54512;BME280;40419;47.438;19.026;2023-06-22T10:01:02;100069.63;;;29.73;58.08
54512;BME280;40419;47.438;19.026;2023-06-22T10:03:34;100066.66;;;29.60;57.78
54512;BME280;40419;47.438;19.026;2023-06-22T10:06:02;100068.19;;;29.84;57.57
54512;BME280;40419;47.438;19.026;2023-06-22T10:08:28;100074.25;;;29.95;55.09
54512;BME280;40419;47.438;19.026;2023-06-22T10:10:54;100064.06;;;29.81;55.26
54512;BME280;40419;47.438;19.026;2023-06-22T10:13:21;100075.06;;;29.78;58.10
54512;BME280;40419;47.438;19.026;2023-06-22T10:15:47;100070.16;;;29.92;56.53
54512;BME280;40419;47.438;19.026;2023-06-22T10:18:17;100070.00;;;29.89;58.00
54512;BME280;40419;47.438;19.026;2023-06-22T10:20:43;100061.25;;;29.73;57.48
54512;BME280;40419;47.438;19.026;2023-06-22T10:23:09;100057.19;;;29.96;56.30
54512;BME280;40419;47.438;19.026;2023-06-22T10:25:34;100068.50;;;30.26;58.15
54512;BME280;40419;47.438;19.026;2023-06-22T10:28:00;100057.16;;;30.49;54.35
54512;BME280;40419;47.438;19.026;2023-06-22T10:30:28;100058.59;;;30.64;55.51
54512;BME280;40419;47.438;19.026;2023-06-22T10:32:56;100057.41;;;30.73;54.73
54512;BME280;40419;47.438;19.026;2023-06-22T10:35:24;100058.75;;;30.58;55.12
54512;BME280;40419;47.438;19.026;2023-06-22T10:37:50;100057.31;;;30.35;54.92
54512;BME280;40419;47.438;19.026;2023-06-22T10:40:19;100053.06;;;30.29;56.10
54512;BME280;40419;47.438;19.026;2023-06-22T10:42:47;100048.25;;;30.47;54.88
54512;BME280;40419;47.438;19.026;2023-06-22T10:45:18;100050.66;;;30.74;53.77
54512;BME280;40419;47.438;19.026;2023-06-22T10:47:47;100046.91;;;30.62;56.55
54512;BME280;40419;47.438;19.026;2023-06-22T10:50:18;100045.91;;;30.66;55.82
54512;BME280;40419;47.438;19.026;2023-06-22T10:52:50;100052.53;;;30.53;55.60
54512;BME280;40419;47.438;19.026;2023-06-22T10:55:21;100055.16;;;30.58;57.98
54512;BME280;40419;47.438;19.026;2023-06-22T10:57:49;100042.91;;;30.80;57.10
54512;BME280;40419;47.438;19.026;2023-06-22T11:00:20;100044.50;;;30.90;54.12
54512;BME280;40419;47.438;19.026;2023-06-22T11:02:51;100045.63;;;30.59;54.28
54512;BME280;40419;47.438;19.026;2023-06-22T11:05:16;100053.94;;;30.77;52.64
54512;BME280;40419;47.438;19.026;2023-06-22T11:07:44;100049.91;;;30.56;51.01
54512;BME280;40419;47.438;19.026;2023-06-22T11:10:15;100045.22;;;30.78;53.67
54512;BME280;40419;47.438;19.026;2023-06-22T11:12:44;100043.34;;;30.44;53.95
54512;BME280;40419;47.438;19.026;2023-06-22T11:15:12;100038.50;;;30.70;52.57
54512;BME280;40419;47.438;19.026;2023-06-22T11:17:40;100049.78;;;30.83;53.52
54512;BME280;40419;47.438;19.026;2023-06-22T11:20:06;100048.16;;;30.82;50.51
54512;BME280;40419;47.438;19.026;2023-06-22T11:22:39;100039.19;;;30.67;54.35
54512;BME280;40419;47.438;19.026;2023-06-22T11:25:07;100029.69;;;30.51;53.33
54512;BME280;40419;47.438;19.026;2023-06-22T11:27:35;100028.41;;;30.48;51.49
54512;BME280;40419;47.438;19.026;2023-06-22T11:30:05;100031.78;;;30.71;52.37
54512;BME280;40419;47.438;19.026;2023-06-22T11:32:31;100033.53;;;30.85;51.24
54512;BME280;40419;47.438;19.026;2023-06-22T11:34:59;100029.84;;;30.93;51.95
54512;BME280;40419;47.438;19.026;2023-06-22T11:37:26;100023.03;;;30.82;51.73
54512;BME280;40419;47.438;19.026;2023-06-22T11:39:57;100024.78;;;30.95;52.69
54512;BME280;40419;47.438;19.026;2023-06-22T11:42:28;100031.34;;;30.90;50.46
54512;BME280;40419;47.438;19.026;2023-06-22T11:44:56;100026.94;;;30.25;52.33
54512;BME280;40419;47.438;19.026;2023-06-22T11:47:21;100020.47;;;30.59;54.12
54512;BME280;40419;47.438;19.026;2023-06-22T11:49:49;100020.41;;;30.77;54.22
54512;BME280;40419;47.438;19.026;2023-06-22T11:52:14;100012.66;;;30.82;52.10
54512;BME280;40419;47.438;19.026;2023-06-22T11:54:44;100016.56;;;30.99;51.78
54512;BME280;40419;47.438;19.026;2023-06-22T11:57:11;100018.25;;;30.82;51.81
54512;BME280;40419;47.438;19.026;2023-06-22T11:59:36;100015.25;;;30.87;53.93
54512;BME280;40419;47.438;19.026;2023-06-22T12:02:05;100017.97;;;30.66;51.13
54512;BME280;40419;47.438;19.026;2023-06-22T12:04:32;100013.13;;;30.37;53.00
54512;BME280;40419;47.438;19.026;2023-06-22T12:07:00;100008.47;;;30.58;54.00
54512;BME280;40419;47.438;19.026;2023-06-22T12:09:26;100001.44;;;30.91;53.39
54512;BME280;40419;47.438;19.026;2023-06-22T12:11:54;100011.53;;;30.74;53.84
54512;BME280;40419;47.438;19.026;2023-06-22T12:14:24;100008.97;;;30.99;52.25
54512;BME280;40419;47.438;19.026;2023-06-22T12:16:55;100000.41;;;31.04;51.10
54512;BME280;40419;47.438;19.026;2023-06-22T12:19:20;99994.09;;;31.16;52.26
54512;BME280;40419;47.438;19.026;2023-06-22T12:21:46;99999.13;;;30.93;52.73
54512;BME280;40419;47.438;19.026;2023-06-22T12:24:12;99990.50;;;31.07;53.15
54512;BME280;40419;47.438;19.026;2023-06-22T12:26:41;99988.19;;;30.79;54.94
54512;BME280;40419;47.438;19.026;2023-06-22T12:29:08;99988.13;;;30.88;52.28
54512;BME280;40419;47.438;19.026;2023-06-22T12:31:33;99985.00;;;30.98;51.23
54512;BME280;40419;47.438;19.026;2023-06-22T12:33:59;99993.09;;;30.82;53.71
54512;BME280;40419;47.438;19.026;2023-06-22T12:36:24;99980.22;;;30.99;54.01
54512;BME280;40419;47.438;19.026;2023-06-22T12:38:52;99978.66;;;30.80;52.46
54512;BME280;40419;47.438;19.026;2023-06-22T12:41:17;99975.94;;;31.01;52.49
54512;BME280;40419;47.438;19.026;2023-06-22T12:43:43;99973.81;;;30.98;53.34
54512;BME280;40419;47.438;19.026;2023-06-22T12:46:11;99972.78;;;31.03;55.46
54512;BME280;40419;47.438;19.026;2023-06-22T12:48:36;99971.09;;;30.72;52.87
54512;BME280;40419;47.438;19.026;2023-06-22T12:51:07;99976.47;;;30.86;55.50